Time;durP1;ratioP1;P1;durP2;ratioP2;P2;SDS_P1;SDS_P2;PMS_P1;PMS_P2;Temp;Humidity;BMP_temperature;BMP_pressure;BME280_temperature;BME280_humidity;BME280_pressure;Samples;Min_cycle;Max_cycle;Signal;HPM_P1;HPM_P2
2023/04/20 00:00:51;;;;;;;18.23;3.38;;;27.90;22.70;;;;;;5071555;28;20053;-61
2023/04/20 00:03:20;;;;;;;10.55;2.83;;;27.80;22.70;;;;;;5071658;28;20044;-63
2023/04/20 00:05:48;;;;;;;13.93;2.92;;;27.70;22.50;;;;;;5071652;28;20410;-63
2023/04/20 00:08:16;;;;;;;10.75;3.33;;;27.70;22.70;;;;;;5069228;28;20377;-63
2023/04/20 00:10:44;;;;;;;16.88;3.58;;;27.80;23.10;;;;;;5068665;28;20166;-64
2023/04/20 00:13:10;;;;;;;16.45;3.40;;;27.90;22.70;;;;;;5068643;28;20088;-63
2023/04/20 00:15:37;;;;;;;20.40;3.55;;;27.90;22.60;;;;;;5069483;28;20422;-62
2023/04/20 00:18:03;;;;;;;15.18;3.65;;;27.70;22.40;;;;;;5069864;28;20033;-64
2023/04/20 00:20:30;;;;;;;18.50;3.38;;;27.70;22.40;;;;;;5069876;28;20084;-63
2023/04/20 00:22:57;;;;;;;18.00;3.75;;;27.80;22.40;;;;;;5068991;28;20444;-65
2023/04/20 00:25:23;;;;;;;11.25;2.97;;;27.80;21.80;;;;;;5067765;28;20028;-65
2023/04/20 00:27:49;;;;;;;19.73;3.13;;;27.80;21.60;;;;;;5069655;28;20077;-63
2023/04/20 00:30:16;;;;;;;19.95;3.38;;;27.70;21.90;;;;;;5068095;28;20035;-63
2023/04/20 00:32:42;;;;;;;14.43;3.03;;;29.20;23.20;;;;;;5069721;28;20076;-62
2023/04/20 00:35:09;;;;;;;14.48;3.13;;;27.50;22.60;;;;;;5068734;28;20039;-64
2023/04/20 00:37:35;;;;;;;16.98;3.17;;;27.40;22.10;;;;;;5069484;28;20042;-60
2023/04/20 00:40:02;;;;;;;12.93;3.05;;;27.40;22.40;;;;;;5071892;28;20670;-64
2023/04/20 00:42:29;;;;;;;11.15;2.72;;;27.30;22.20;;;;;;5069193;28;20495;-65
2023/04/20 00:44:55;;;;;;;12.60;3.25;;;27.30;22.00;;;;;;5069711;28;20125;-63
2023/04/20 00:47:22;;;;;;;13.30;3.13;;;27.10;21.80;;;;;;5071647;28;20090;-64
2023/04/20 00:49:49;;;;;;;11.07;3.05;;;27.00;21.60;;;;;;5068791;28;20474;-64
2023/04/20 00:52:15;;;;;;;15.52;3.03;;;26.90;21.90;;;;;;5067202;28;20055;-63
2023/04/20 00:54:42;;;;;;;19.88;3.17;;;26.90;21.40;;;;;;5067328;28;20045;-63
2023/04/20 00:57:12;;;;;;;13.13;3.03;;;26.80;21.30;;;;;;5075189;28;20040;-64
2023/04/20 00:59:40;;;;;;;12.38;3.15;;;26.80;21.40;;;;;;5068828;28;20057;-63
2023/04/20 01:02:06;;;;;;;17.13;2.90;;;26.70;21.80;;;;;;5067710;28;20080;-64
2023/04/20 01:04:38;;;;;;;16.58;3.00;;;26.70;21.80;;;;;;5069725;28;20645;-65
2023/04/20 01:07:05;;;;;;;14.43;2.78;;;26.60;21.80;;;;;;5068616;28;20080;-64
2023/04/20 01:09:31;;;;;;;19.95;3.78;;;26.60;21.60;;;;;;5067428;28;20055;-64
2023/04/20 01:11:57;;;;;;;14.43;3.30;;;26.60;21.50;;;;;;5067890;28;20067;-64
2023/04/20 01:14:24;;;;;;;11.88;2.88;;;26.60;21.60;;;;;;5066493;28;20422;-64
2023/04/20 01:16:50;;;;;;;12.55;2.67;;;26.50;21.60;;;;;;5067824;28;20390;-64
2023/04/20 01:19:17;;;;;;;12.38;2.90;;;26.50;21.60;;;;;;5066969;28;20042;-63
2023/04/20 01:21:43;;;;;;;15.13;3.20;;;26.40;21.70;;;;;;5066125;28;20158;-64
2023/04/20 01:24:10;;;;;;;11.20;2.88;;;26.30;22.20;;;;;;5071314;28;20051;-64
2023/04/20 01:26:36;;;;;;;12.35;3.10;;;;;;;;;;5066716;28;20023;-63
2023/04/20 01:29:03;;;;;;;19.75;3.78;;;26.20;27.10;;;;;;5067971;28;20046;-63
2023/04/20 01:31:30;;;;;;;15.38;3.38;;;;;;;;;;5067964;28;20040;-65
2023/04/20 01:33:56;;;;;;;17.65;3.25;;;;;;;;;;5067168;28;20017;-62
2023/04/20 01:36:23;;;;;;;8.80;2.45;;;;;;;;;;5068802;28;20078;-64
2023/04/20 01:38:49;;;;;;;13.20;2.67;;;;;;;;;;5067067;28;20029;-64
2023/04/20 01:41:16;;;;;;;17.95;2.55;;;;;;;;;;5067644;28;20550;-64
2023/04/20 01:43:42;;;;;;;15.43;3.22;;;;;;;;;;5067065;28;20028;-65
2023/04/20 01:48:54;;;;;;;15.98;2.53;;;;;;;;;;5067702;28;20087;-65
2023/04/20 01:51:21;;;;;;;17.25;3.42;;;;;;;;;;5065663;28;20032;-64
2023/04/20 01:53:47;;;;;;;12.75;3.05;;;;;;;;;;5069782;28;20468;-65
2023/04/20 01:56:14;;;;;;;12.40;2.75;;;;;;;;;;5071552;28;20024;-65
2023/04/20 01:58:40;;;;;;;19.60;3.50;;;;;;;;;;5068089;28;20020;-64
2023/04/20 02:01:07;;;;;;;14.98;3.08;;;;;;;;;;5067660;28;20468;-64
2023/04/20 02:03:33;;;;;;;15.95;3.10;;;;;;;;;;5066537;28;20465;-63
2023/04/20 02:06:00;;;;;;;11.15;2.92;;;;;;;;;;5068139;28;20027;-65
2023/04/20 02:08:26;;;;;;;12.75;3.25;;;;;;;;;;5065793;28;20050;-64
2023/04/20 02:10:53;;;;;;;18.88;3.22;;;;;;;;;;5065821;28;20028;-63
2023/04/20 02:13:20;;;;;;;32.22;10.40;;;;;;;;;;5067002;28;20393;-64
2023/04/20 02:15:46;;;;;;;33.92;11.77;;;;;;;;;;5065975;28;20036;-63
2023/04/20 02:18:14;;;;;;;33.33;14.23;;;;;;;;;;5066756;28;20024;-64
2023/04/20 02:20:41;;;;;;;31.55;12.60;;;;;;;;;;5069006;28;20473;-65
2023/04/20 02:23:07;;;;;;;30.55;13.55;;;;;;;;;;5066715;28;20036;-63
2023/04/20 02:25:34;;;;;;;24.35;10.95;;;;;;;;;;5065439;28;20111;-64
2023/04/20 02:28:01;;;;;;;18.42;3.10;;;;;;;;;;5067236;28;20025;-65
2023/04/20 02:30:27;;;;;;;12.50;3.22;;;;;;;;;;5065893;28;20046;-63
2023/04/20 02:32:54;;;;;;;27.65;4.47;;;;;;;;;;5066548;28;20363;-63
2023/04/20 02:35:20;;;;;;;20.92;3.53;;;;;;;;;;5068053;28;20052;-63
2023/04/20 02:37:47;;;;;;;22.02;3.30;;;;;;;;;;5067387;28;20048;-63
2023/04/20 02:40:14;;;;;;;16.77;3.67;;;24.40;34.20;;;;;;5072299;28;20033;-65
2023/04/20 02:42:40;;;;;;;16.60;3.60;;;;;;;;;;5066768;28;20032;-63
2023/04/20 02:45:07;;;;;;;16.77;3.28;;;24.70;35.70;;;;;;5067017;28;20389;-62
2023/04/20 02:47:34;;;;;;;20.00;4.40;;;;;;;;;;5067224;28;20047;-64
2023/04/20 02:50:00;;;;;;;17.33;3.60;;;;;;;;;;5067885;28;20077;-63
2023/04/20 02:52:27;;;;;;;14.65;3.97;;;24.10;69.50;;;;;;5068599;28;20409;-63
2023/04/20 02:54:53;;;;;;;25.02;4.03;;;;;;;;;;5072111;28;20039;-66
2023/04/20 02:57:20;;;;;;;19.27;4.38;;;;;;;;;;5072970;28;20052;-63
2023/04/20 02:59:46;;;;;;;27.95;4.47;;;;;;;;;;5071089;28;20021;-62
2023/04/20 03:02:13;;;;;;;29.15;4.53;;;;;;;;;;5071592;28;20495;-64
2023/04/20 03:04:39;;;;;;;27.67;5.22;;;;;;;;;;5071393;28;20380;-63
2023/04/20 03:07:06;;;;;;;23.98;4.80;;;23.40;33.50;;;;;;5074501;28;20649;-62
2023/04/20 03:09:33;;;;;;;16.52;5.05;;;23.40;34.10;;;;;;5071133;28;20480;-62
2023/04/20 03:12:01;;;;;;;19.30;4.72;;;;;;;;;;5071280;28;20024;-61
2023/04/20 03:14:27;;;;;;;20.50;4.50;;;23.90;34.70;;;;;;5071016;28;20027;-62
2023/04/20 03:16:54;;;;;;;15.15;4.28;;;;;;;;;;5070600;28;20082;-62
2023/04/20 03:19:20;;;;;;;24.95;4.38;;;;;;;;;;5070795;28;20480;-62
2023/04/20 03:21:47;;;;;;;19.05;4.40;;;22.90;70.40;;;;;;5069818;28;20694;-62
2023/04/20 03:24:13;;;;;;;19.42;4.00;;;22.60;39.40;;;;;;5073248;28;20040;-63
2023/04/20 03:26:40;;;;;;;20.13;4.25;;;23.50;72.00;;;;;;5070445;28;20020;-63
2023/04/20 03:29:06;;;;;;;25.23;4.43;;;;;;;;;;5074284;28;20020;-62
2023/04/20 03:31:33;;;;;;;31.30;5.90;;;;;;;;;;5073794;28;20048;-61
2023/04/20 03:34:00;;;;;;;24.25;5.80;;;23.10;39.60;;;;;;5069660;28;20021;-62
2023/04/20 03:36:30;;;;;;;24.48;7.45;;;22.60;73.10;;;;;;5073498;28;20028;-64
2023/04/20 03:38:57;;;;;;;25.00;9.45;;;22.40;73.20;;;;;;5069826;28;20058;-62
2023/04/20 03:41:23;;;;;;;44.35;13.70;;;;;;;;;;5069846;28;20031;-62
2023/04/20 03:43:50;;;;;;;39.88;13.90;;;;;;;;;;5077150;28;20471;-62
2023/04/20 03:46:16;;;;;;;32.70;11.48;;;;;;;;;;5077444;28;20029;-62
2023/04/20 03:48:43;;;;;;;25.25;9.90;;;;;;;;;;5069138;28;20025;-62
2023/04/20 03:51:09;;;;;;;31.52;10.55;;;;;;;;;;5069023;28;20025;-62
2023/04/20 03:53:36;;;;;;;25.02;8.68;;;;;;;;;;5071721;28;20031;-62
2023/04/20 03:56:02;;;;;;;36.78;8.90;;;;;;;;;;5070762;28;20023;-63
2023/04/20 03:58:29;;;;;;;29.67;8.50;;;22.60;73.60;;;;;;5069031;28;20178;-63
2023/04/20 04:01:06;;;;;;;39.17;9.02;;;22.50;43.40;;;;;;5073906;28;20086;-63
2023/04/20 04:03:34;;;;;;;58.63;10.55;;;22.20;42.20;;;;;;5068176;28;20032;-61
2023/04/20 04:06:00;;;;;;;42.40;11.23;;;;;;;;;;5070225;28;20093;-63
2023/04/20 04:08:27;;;;;;;52.45;12.73;;;;;;;;;;5071981;28;20028;-62
2023/04/20 04:10:53;;;;;;;51.22;13.07;;;;;;;;;;5069493;28;20039;-63
2023/04/20 04:13:20;;;;;;;48.40;14.57;;;;;;;;;;5069532;28;20052;-61
2023/04/20 04:15:46;;;;;;;42.90;14.02;;;21.80;42.20;;;;;;5068329;28;20923;-59
2023/04/20 04:18:13;;;;;;;44.95;13.07;;;;;;;;;;5070199;28;20024;-61
2023/04/20 04:20:39;;;;;;;56.80;12.63;;;;;;;;;;5068505;28;20021;-60
2023/04/20 04:23:06;;;;;;;46.00;12.13;;;;;;;;;;5071219;28;20017;-62
2023/04/20 04:25:32;;;;;;;50.25;11.73;;;;;;;;;;5071929;28;20021;-61
2023/04/20 04:27:59;;;;;;;48.28;9.88;;;21.40;39.00;;;;;;5076022;28;20103;-61
2023/04/20 04:30:26;;;;;;;47.53;9.90;;;21.70;42.90;;;;;;5081096;28;20547;-61
2023/04/20 04:32:53;;;;;;;49.85;9.07;;;;;;;;;;5073780;28;20122;-61
2023/04/20 04:35:19;;;;;;;54.85;9.75;;;;;;;;;;5076059;28;20019;-64
2023/04/20 04:37:46;;;;;;;46.42;8.18;;;21.60;79.60;;;;;;5069123;28;20028;-63
2023/04/20 04:40:12;;;;;;;45.25;9.43;;;;;;;;;;5069547;28;20085;-62
2023/04/20 04:42:39;;;;;;;44.10;8.85;;;;;;;;;;5068740;28;20037;-63
2023/04/20 04:45:06;;;;;;;45.97;8.98;;;21.10;42.70;;;;;;5068566;28;20066;-62
2023/04/20 04:47:36;;;;;;;46.25;8.63;;;21.90;38.80;;;;;;5070775;28;20553;-63
2023/04/20 04:50:04;;;;;;;50.78;8.52;;;20.60;43.30;;;;;;5068207;28;20035;-62
2023/04/20 04:52:32;;;;;;;44.20;8.98;;;21.20;43.80;;;;;;5068743;28;20446;-60
2023/04/20 04:54:58;;;;;;;47.22;8.30;;;;;;;;;;5069281;28;20055;-62
2023/04/20 16:45:51;;;;;;;22.05;3.67;;;25.20;48.90;;;;;;5085087;27;20761;-61
2023/04/20 16:48:17;;;;;;;16.23;3.83;;;;;;;;;;5086964;28;20534;-65
2023/04/20 16:50:44;;;;;;;17.40;3.78;;;;;;;;;;5086788;28;20020;-64
2023/04/20 16:53:11;;;;;;;19.15;3.95;;;;;;;;;;5085279;28;20064;-65
2023/04/20 16:55:37;;;;;;;22.02;3.13;;;;;;;;;;5088580;28;20078;-65
2023/04/20 16:58:04;;;;;;;18.95;4.00;;;;;;;;;;5086490;28;20087;-63
2023/04/20 17:00:32;;;;;;;23.65;3.60;;;26.20;51.80;;;;;;5086079;28;20020;-62
2023/04/20 17:03:02;;;;;;;17.15;3.35;;;26.30;55.30;;;;;;5093751;28;20023;-62
2023/04/20 17:05:28;;;;;;;19.63;3.50;;;26.50;56.50;;;;;;5090121;28;20063;-64
2023/04/20 17:07:54;;;;;;;15.95;3.50;;;26.80;31.10;;;;;;5095503;28;20040;-63
2023/04/20 17:10:21;;;;;;;26.30;3.60;;;26.50;29.40;;;;;;5089167;28;20034;-61
2023/04/20 17:12:49;;;;;;;25.38;3.67;;;26.50;29.60;;;;;;5096622;28;20030;-61
2023/04/20 17:15:16;;;;;;;20.15;3.78;;;;;;;;;;5095778;28;20020;-60
2023/04/20 17:17:42;;;;;;;15.23;3.55;;;;;;;;;;5090803;28;20032;-60
2023/04/20 17:20:09;;;;;;;12.27;2.92;;;;;;;;;;5086429;28;20082;-62
2023/04/20 17:22:35;;;;;;;15.18;2.85;;;;;;;;;;5088142;28;20089;-61
2023/04/20 17:25:03;;;;;;;23.38;3.40;;;;;;;;;;5091857;28;20914;-62
2023/04/20 17:27:30;;;;;;;30.88;3.63;;;;;;;;;;5085056;28;20089;-62
2023/04/20 17:29:57;;;;;;;13.57;3.55;;;;;;;;;;5084237;28;20450;-59
2023/04/20 17:32:23;;;;;;;11.95;3.17;;;;;;;;;;5086544;28;20070;-60
2023/04/20 17:34:52;;;;;;;14.55;3.63;;;;;;;;;;5085825;28;20082;-62
2023/04/20 17:37:19;;;;;;;23.85;4.05;;;27.70;52.00;;;;;;5087970;28;20082;-59
2023/04/20 17:39:46;;;;;;;16.17;3.60;;;;;;;;;;5103560;28;20107;-62
2023/04/20 17:42:12;;;;;;;13.05;2.67;;;;;;;;;;5087053;28;20028;-61
2023/04/20 17:44:39;;;;;;;9.85;2.53;;;;;;;;;;5084356;28;20075;-64
2023/04/20 17:47:08;;;;;;;13.90;2.80;;;;;;;;;;5086549;28;20026;-62
2023/04/20 17:49:35;;;;;;;7.18;2.47;;;29.40;37.00;;;;;;5087188;28;20016;-63
2023/04/20 17:52:02;;;;;;;13.15;2.80;;;29.00;35.00;;;;;;5085454;28;20025;-63
2023/04/20 17:54:28;;;;;;;15.88;3.00;;;;;;;;;;5085921;28;20025;-61
2023/04/20 17:56:56;;;;;;;13.00;2.75;;;;;;;;;;5072631;28;20020;-61
2023/04/20 17:59:23;;;;;;;11.43;2.55;;;;;;;;;;5069602;28;20495;-60
2023/04/20 18:01:49;;;;;;;12.10;2.65;;;;;;;;;;5071331;28;20095;-61
2023/04/20 18:04:16;;;;;;;10.20;2.92;;;;;;;;;;5071448;28;20473;-60
2023/04/20 18:06:42;;;;;;;12.73;3.40;;;;;;;;;;5069881;28;20032;-60
2023/04/20 18:09:11;;;;;;;10.18;3.33;;;;;;;;;;5072019;28;20435;-61
2023/04/20 18:11:38;;;;;;;17.48;2.60;;;;;;;;;;5071254;28;20066;-60
2023/04/20 18:14:04;;;;;;;14.50;3.38;;;;;;;;;;5070519;28;20108;-58
2023/04/20 18:16:31;;;;;;;22.55;3.67;;;;;;;;;;5075049;28;20023;-61
2023/04/20 18:18:57;;;;;;;11.00;2.58;;;;;;;;;;5072326;28;20483;-60
2023/04/20 18:21:24;;;;;;;19.65;4.43;;;;;;;;;;5070591;28;20381;-61
2023/04/20 18:23:50;;;;;;;19.60;3.53;;;;;;;;;;5069906;28;20392;-60
2023/04/20 18:26:19;;;;;;;14.30;4.47;;;;;;;;;;5073960;28;20024;-60
2023/04/20 18:28:46;;;;;;;13.35;3.50;;;29.30;32.80;;;;;;5070699;28;20473;-61
2023/04/20 18:31:13;;;;;;;10.80;3.00;;;29.90;33.30;;;;;;5069436;28;20134;-60
2023/04/20 18:33:39;;;;;;;10.18;2.90;;;29.30;29.10;;;;;;5070319;28;20043;-61
2023/04/20 18:36:06;;;;;;;12.63;2.85;;;;;;;;;;5069994;28;20540;-63
2023/04/20 18:38:34;;;;;;;15.65;3.05;;;;;;;;;;5070448;28;20028;-60
2023/04/20 18:41:01;;;;;;;14.73;3.85;;;30.20;31.50;;;;;;5070414;28;20029;-61
2023/04/20 18:43:27;;;;;;;13.23;2.92;;;;;;;;;;5070099;28;20031;-61
2023/04/20 18:45:54;;;;;;;12.20;3.00;;;;;;;;;;5070348;28;20025;-60
2023/04/20 18:48:20;;;;;;;18.52;3.42;;;;;;;;;;5069220;28;20489;-63
2023/04/20 18:50:47;;;;;;;14.80;3.03;;;;;;;;;;5069435;28;20105;-61
2023/04/20 18:53:13;;;;;;;9.40;2.65;;;;;;;;;;5069646;28;20032;-61
2023/04/20 18:55:40;;;;;;;14.77;3.42;;;;;;;;;;5070456;28;20069;-62
2023/04/20 18:58:07;;;;;;;15.25;3.45;;;;;;;;;;5072911;28;20024;-61
2023/04/20 19:00:33;;;;;;;19.83;3.10;;;;;;;;;;5069445;28;20020;-62
2023/04/20 19:03:00;;;;;;;10.02;2.80;;;;;;;;;;5069875;28;20028;-62
2023/04/20 19:05:26;;;;;;;9.60;2.85;;;;;;;;;;5069816;28;20020;-60
2023/04/20 19:07:53;;;;;;;11.75;3.10;;;;;;;;;;5068635;28;20025;-61
2023/04/20 19:10:19;;;;;;;15.90;2.70;;;;;;;;;;5069922;28;20518;-61
2023/04/20 19:12:46;;;;;;;14.85;3.55;;;;;;;;;;5069807;28;20029;-61
2023/04/20 19:15:12;;;;;;;12.63;3.45;;;;;;;;;;5073179;28;20025;-62
2023/04/20 19:17:40;;;;;;;13.77;2.63;;;;;;;;;;5069020;28;20052;-60
2023/04/20 19:20:07;;;;;;;12.30;3.13;;;;;;;;;;5070743;28;20120;-59
2023/04/20 19:22:34;;;;;;;10.38;3.58;;;;;;;;;;5068037;28;20031;-61
2023/04/20 19:25:00;;;;;;;12.77;2.60;;;;;;;;;;5068193;28;20067;-61
2023/04/20 19:27:27;;;;;;;17.10;3.53;;;;;;;;;;5067480;28;20473;-61
2023/04/20 19:29:54;;;;;;;12.05;2.78;;;;;;;;;;5068122;28;20052;-61
2023/04/20 19:32:20;;;;;;;18.40;3.42;;;;;;;;;;5069165;28;20107;-61
2023/04/20 19:34:47;;;;;;;15.25;3.35;;;;;;;;;;5068973;28;20021;-61
2023/04/20 19:37:13;;;;;;;18.27;3.53;;;;;;;;;;5068395;28;20029;-65
2023/04/20 19:39:40;;;;;;;18.13;2.70;;;;;;;;;;5069474;28;20107;-61
2023/04/20 19:42:06;;;;;;;15.05;3.28;;;;;;;;;;5068546;28;20067;-61
2023/04/20 19:44:34;;;;;;;13.50;2.50;;;;;;;;;;5068379;28;20544;-60
2023/04/20 19:47:01;;;;;;;22.50;3.50;;;;;;;;;;5068255;28;20365;-61
2023/04/20 19:49:27;;;;;;;10.68;2.95;;;;;;;;;;5067396;28;20533;-61
2023/04/20 19:51:54;;;;;;;12.70;2.80;;;;;;;;;;5067895;28;20028;-62
2023/04/20 19:54:21;;;;;;;13.38;3.10;;;;;;;;;;5067908;28;20020;-63
2023/04/20 19:56:47;;;;;;;11.45;2.75;;;;;;;;;;5067388;28;20029;-61
2023/04/20 19:59:14;;;;;;;15.60;2.75;;;;;;;;;;5066746;28;20060;-60
2023/04/20 20:01:41;;;;;;;8.85;2.53;;;;;;;;;;5068306;28;20031;-62
2023/04/20 20:04:07;;;;;;;8.05;2.85;;;;;;;;;;5066667;28;20029;-63
2023/04/20 20:06:34;;;;;;;22.83;3.40;;;;;;;;;;5067905;28;20017;-62
2023/04/20 20:09:00;;;;;;;13.02;2.88;;;;;;;;;;5068915;28;20024;-61
2023/04/20 20:11:27;;;;;;;10.68;2.47;;;;;;;;;;5067210;28;20120;-60
2023/04/20 20:13:54;;;;;;;16.25;3.30;;;;;;;;;;5067430;28;20025;-61
2023/04/20 20:16:20;;;;;;;15.07;3.60;;;;;;;;;;5066170;28;20028;-61
2023/04/20 20:18:48;;;;;;;11.90;2.85;;;31.50;39.90;;;;;;5067202;28;20052;-63
2023/04/20 20:21:14;;;;;;;12.73;3.28;;;;;;;;;;5071102;28;20057;-62
2023/04/20 20:23:41;;;;;;;16.38;3.17;;;;;;;;;;5067885;28;20396;-61
2023/04/20 20:26:07;;;;;;;15.70;2.78;;;;;;;;;;5067369;28;20029;-60
2023/04/20 20:28:34;;;;;;;12.20;2.80;;;;;;;;;;5068064;28;20021;-62
2023/04/20 20:31:00;;;;;;;13.75;2.97;;;;;;;;;;5068393;28;20029;-61
2023/04/20 20:33:27;;;;;;;16.33;3.03;;;;;;;;;;5067811;28;20024;-61
2023/04/20 20:35:54;;;;;;;19.15;3.15;;;;;;;;;;5067570;28;20032;-62
2023/04/20 20:38:21;;;;;;;11.27;2.90;;;;;;;;;;5067996;28;20373;-61
2023/04/20 20:40:52;;;;;;;12.65;3.30;;;;;;;;;;5068881;28;20550;-60
2023/04/20 20:43:18;;;;;;;12.20;3.20;;;;;;;;;;5067633;28;20028;-61
2023/04/20 20:45:46;;;;;;;18.50;3.63;;;;;;;;;;5067852;28;20134;-62
2023/04/20 20:48:12;;;;;;;19.45;3.70;;;;;;;;;;5067053;28;20032;-60
2023/04/20 20:50:39;;;;;;;13.05;3.72;;;;;;;;;;5066832;28;20476;-60
2023/04/20 20:53:06;;;;;;;13.07;4.30;;;;;;;;;;5071591;28;20028;-61
2023/04/20 20:55:32;;;;;;;22.73;5.45;;;;;;;;;;5065946;28;20032;-61
2023/04/20 20:57:59;;;;;;;15.02;4.72;;;;;;;;;;5066892;28;20056;-61
2023/04/20 21:00:25;;;;;;;22.27;9.52;;;;;;;;;;5065647;28;20028;-62
2023/04/20 21:02:52;;;;;;;10.80;4.63;;;;;;;;;;5067010;28;20036;-59
2023/04/20 21:05:18;;;;;;;18.35;3.50;;;;;;;;;;5068692;28;20032;-62
2023/04/20 21:07:45;;;;;;;16.92;2.90;;;;;;;;;;5065642;28;20523;-61
2023/04/20 21:10:11;;;;;;;16.05;3.28;;;;;;;;;;5067156;28;20079;-62
2023/04/20 21:12:38;;;;;;;14.38;3.03;;;;;;;;;;5067144;28;20377;-59
2023/04/20 21:15:05;;;;;;;13.13;3.05;;;32.20;30.20;;;;;;5066814;28;20024;-62
2023/04/20 21:17:31;;;;;;;20.05;2.90;;;;;;;;;;5067619;28;20475;-61
2023/04/20 21:19:58;;;;;;;17.08;3.33;;;;;;;;;;5067637;28;20032;-61
2023/04/20 21:22:25;;;;;;;17.00;3.25;;;;;;;;;;5067142;28;20024;-61
2023/04/20 21:24:51;;;;;;;21.95;2.97;;;;;;;;;;5065521;28;20035;-62
2023/04/20 21:27:18;;;;;;;10.48;2.63;;;;;;;;;;5066023;28;20024;-61
2023/04/20 21:29:44;;;;;;;14.38;3.08;;;;;;;;;;5067243;28;20708;-63
2023/04/20 21:32:11;;;;;;;20.48;4.28;;;;;;;;;;5077357;28;20074;-61
2023/04/20 21:34:37;;;;;;;15.63;3.50;;;;;;;;;;5069877;28;20029;-62
2023/04/20 21:37:04;;;;;;;16.40;3.20;;;;;;;;;;5070506;28;20494;-62
2023/04/20 21:39:31;;;;;;;15.25;3.00;;;32.40;35.30;;;;;;5070358;28;20031;-61
2023/04/20 21:41:58;;;;;;;16.73;2.78;;;;;;;;;;5070454;28;20020;-61
2023/04/20 21:44:25;;;;;;;12.02;2.83;;;32.40;38.10;;;;;;5069912;28;20043;-61
2023/04/20 21:46:52;;;;;;;12.13;2.55;;;;;;;;;;5069805;28;20484;-61
2023/04/20 21:49:18;;;;;;;11.38;2.90;;;;;;;;;;5070655;28;20081;-61
2023/04/20 21:51:45;;;;;;;13.75;3.20;;;;;;;;;;5070641;28;20170;-60
2023/04/20 21:54:11;;;;;;;8.57;3.13;;;;;;;;;;5069954;28;20029;-61
2023/04/20 21:56:38;;;;;;;17.23;3.10;;;;;;;;;;5070521;28;20017;-61
2023/04/20 21:59:04;;;;;;;17.50;3.40;;;;;;;;;;5069133;28;20035;-61
2023/04/20 22:01:31;;;;;;;20.77;3.63;;;;;;;;;;5070707;28;20028;-61
2023/04/20 22:03:57;;;;;;;14.70;2.88;;;;;;;;;;5072628;28;20039;-61
2023/04/20 22:06:24;;;;;;;12.93;3.65;;;;;;;;;;5074420;28;20100;-60
2023/04/20 22:08:51;;;;;;;11.15;2.85;;;;;;;;;;5080797;28;20141;-62
2023/04/20 22:11:17;;;;;;;10.52;2.80;;;;;;;;;;5070594;28;20033;-62
2023/04/20 22:13:44;;;;;;;14.40;3.10;;;;;;;;;;5072898;28;20027;-63
2023/04/20 22:16:10;;;;;;;16.00;3.42;;;;;;;;;;5074865;28;20090;-63
2023/04/20 22:18:37;;;;;;;13.00;3.15;;;;;;;;;;5082933;28;20032;-62
2023/04/20 22:21:03;;;;;;;11.00;2.63;;;;;;;;;;5075936;28;20025;-60
2023/04/20 22:23:30;;;;;;;14.77;3.15;;;;;;;;;;5070904;28;20025;-61
2023/04/20 22:25:56;;;;;;;18.05;2.92;;;;;;;;;;5073896;28;20051;-60
2023/04/20 22:28:23;;;;;;;14.10;3.00;;;;;;;;;;5077270;28;20099;-62
2023/04/20 22:30:49;;;;;;;13.63;2.90;;;;;;;;;;5070816;28;20120;-62
2023/04/20 22:33:16;;;;;;;11.63;2.70;;;;;;;;;;5073166;28;20019;-59
2023/04/20 22:35:42;;;;;;;9.80;3.10;;;;;;;;;;5068799;28;20110;-60
2023/04/20 22:38:09;;;;;;;12.23;2.53;;;;;;;;;;5068689;28;20029;-60
2023/04/20 22:40:35;;;;;;;14.57;2.80;;;;;;;;;;5067698;28;20052;-61
2023/04/20 22:43:02;;;;;;;12.20;2.78;;;;;;;;;;5068663;28;20103;-61
2023/04/20 22:45:28;;;;;;;13.13;2.78;;;;;;;;;;5068761;28;20044;-63
2023/04/20 22:47:55;;;;;;;17.25;3.05;;;;;;;;;;5071516;28;20469;-60
2023/04/20 22:50:22;;;;;;;15.07;3.03;;;;;;;;;;5065981;28;20024;-59
2023/04/20 22:52:49;;;;;;;15.45;3.35;;;31.00;32.60;;;;;;5070549;28;20025;-60
2023/04/20 22:55:16;;;;;;;17.50;3.58;;;;;;;;;;5065855;28;20032;-57
2023/04/20 22:57:43;;;;;;;10.13;3.03;;;;;;;;;;5071473;28;20032;-60
2023/04/20 23:00:12;;;;;;;20.13;2.92;;;31.60;30.30;;;;;;5069409;28;20036;-60
2023/04/20 23:02:39;;;;;;;15.75;3.28;;;31.40;29.20;;;;;;5067153;28;20442;-61
2023/04/20 23:05:06;;;;;;;17.92;2.92;;;31.30;27.60;;;;;;5070085;28;20056;-62
2023/04/20 23:07:32;;;;;;;14.27;2.97;;;31.40;29.70;;;;;;5067600;28;20035;-55
2023/04/20 23:10:00;;;;;;;10.88;3.10;;;;;;;;;;5066674;28;20028;-59
2023/04/20 23:12:28;;;;;;;13.13;2.60;;;31.20;32.30;;;;;;5068673;28;20483;-58
2023/04/20 23:14:59;;;;;;;11.90;3.00;;;31.80;30.70;;;;;;5071030;28;20477;-59
2023/04/20 23:17:26;;;;;;;14.27;2.88;;;31.70;31.20;;;;;;5068046;28;20056;-60
2023/04/20 23:19:54;;;;;;;15.65;3.10;;;;;;;;;;5071845;28;20069;-60
2023/04/20 23:22:20;;;;;;;12.15;2.72;;;;;;;;;;5076315;28;20057;-59
2023/04/20 23:24:47;;;;;;;10.88;2.80;;;;;;;;;;5071587;28;20392;-60
2023/04/20 23:27:13;;;;;;;12.15;2.97;;;;;;;;;;5068628;28;20534;-60
2023/04/20 23:29:40;;;;;;;14.32;3.50;;;;;;;;;;5067429;28;20388;-62
2023/04/20 23:32:06;;;;;;;12.65;2.58;;;;;;;;;;5078201;28;20074;-62
2023/04/20 23:34:33;;;;;;;14.80;2.50;;;;;;;;;;5071593;28;20039;-59
2023/04/20 23:37:00;;;;;;;7.43;2.80;;;;;;;;;;5071220;28;20029;-60
2023/04/20 23:39:26;;;;;;;11.27;3.00;;;;;;;;;;5068787;28;20052;-60
2023/04/20 23:41:53;;;;;;;15.32;3.08;;;;;;;;;;5066710;28;20373;-64
2023/04/20 23:44:19;;;;;;;17.45;3.50;;;;;;;;;;5075774;28;20040;-62
2023/04/20 23:46:46;;;;;;;12.02;2.67;;;;;;;;;;5072676;28;20102;-63
2023/04/20 23:49:12;;;;;;;13.95;3.03;;;;;;;;;;5073030;28;20074;-62
2023/04/20 23:51:39;;;;;;;10.77;2.72;;;;;;;;;;5066610;28;20052;-62
2023/04/20 23:54:05;;;;;;;14.38;3.35;;;;;;;;;;5068830;28;20024;-62
2023/04/20 23:56:32;;;;;;;11.18;2.78;;;;;;;;;;5067718;28;20031;-60
2023/04/20 23:58:58;;;;;;;11.77;2.80;;;31.00;29.10;;;;;;5068311;28;20052;-61
